sensor_id;sensor_type;location;lat;lon;timestamp;pressure;altitude;pressure_sealevel;temperature;humidity
65329;BME280;51941;52.210;5.158;2023-04-19T00:01:19;102795.88;;;19.67;63.73
65329;BME280;51941;52.210;5.158;2023-04-19T00:03:45;102802.06;;;19.67;63.79
65329;BME280;51941;52.210;5.158;2023-04-19T00:06:12;102801.00;;;19.69;63.61
65329;BME280;51941;52.210;5.158;2023-04-19T00:08:40;102798.47;;;19.62;63.73
65329;BME280;51941;52.210;5.158;2023-04-19T00:11:08;102801.91;;;19.57;63.70
65329;BME280;51941;52.210;5.158;2023-04-19T00:13:35;102803.84;;;19.62;63.35
65329;BME280;51941;52.210;5.158;2023-04-19T00:16:03;102794.66;;;19.58;63.46
65329;BME280;51941;52.210;5.158;2023-04-19T00:18:29;102786.44;;;19.48;63.58
65329;BME280;51941;52.210;5.158;2023-04-19T00:20:56;102750.47;;;19.20;63.46
65329;BME280;51941;52.210;5.158;2023-04-19T00:23:23;102798.81;;;19.49;63.35
65329;BME280;51941;52.210;5.158;2023-04-19T00:25:50;102802.88;;;19.51;63.10
65329;BME280;51941;52.210;5.158;2023-04-19T00:28:18;102800.91;;;19.47;63.06
65329;BME280;51941;52.210;5.158;2023-04-19T00:30:44;102789.53;;;19.40;63.05
65329;BME280;51941;52.210;5.158;2023-04-19T00:33:11;102793.81;;;19.41;63.05
65329;BME280;51941;52.210;5.158;2023-04-19T00:35:38;102802.56;;;19.48;62.96
65329;BME280;51941;52.210;5.158;2023-04-19T00:38:05;102798.22;;;19.47;62.81
65329;BME280;51941;52.210;5.158;2023-04-19T00:40:32;102797.41;;;19.46;62.33
65329;BME280;51941;52.210;5.158;2023-04-19T00:42:59;102784.03;;;19.35;62.63
65329;BME280;51941;52.210;5.158;2023-04-19T00:45:27;102784.84;;;19.35;62.70
65329;BME280;51941;52.210;5.158;2023-04-19T00:47:54;102721.78;;;18.92;62.81
65329;BME280;51941;52.210;5.158;2023-04-19T00:50:21;102781.84;;;19.32;62.72
65329;BME280;51941;52.210;5.158;2023-04-19T00:52:48;102781.72;;;19.26;63.01
65329;BME280;51941;52.210;5.158;2023-04-19T00:55:14;102778.97;;;19.21;62.73
65329;BME280;51941;52.210;5.158;2023-04-19T00:57:41;102776.81;;;19.23;62.78
65329;BME280;51941;52.210;5.158;2023-04-19T01:00:09;102768.94;;;19.17;62.49
65329;BME280;51941;52.210;5.158;2023-04-19T01:02:37;102771.97;;;19.20;62.61
65329;BME280;51941;52.210;5.158;2023-04-19T01:05:04;102770.94;;;19.10;62.62
65329;BME280;51941;52.210;5.158;2023-04-19T01:07:32;102748.16;;;18.96;62.59
65329;BME280;51941;52.210;5.158;2023-04-19T01:09:59;102773.72;;;19.15;62.56
65329;BME280;51941;52.210;5.158;2023-04-19T01:12:25;102766.63;;;19.09;62.54
65329;BME280;51941;52.210;5.158;2023-04-19T01:14:52;102779.25;;;19.08;62.41
65329;BME280;51941;52.210;5.158;2023-04-19T01:17:19;102770.06;;;19.04;62.46
65329;BME280;51941;52.210;5.158;2023-04-19T01:19:47;102769.56;;;19.07;62.26
65329;BME280;51941;52.210;5.158;2023-04-19T01:22:18;102767.88;;;19.18;61.96
65329;BME280;51941;52.210;5.158;2023-04-19T01:24:45;102775.75;;;19.08;62.11
65329;BME280;51941;52.210;5.158;2023-04-19T01:27:13;102767.38;;;19.04;62.48
65329;BME280;51941;52.210;5.158;2023-04-19T01:29:41;102757.03;;;18.96;62.22
65329;BME280;51941;52.210;5.158;2023-04-19T01:32:08;102766.56;;;19.04;62.36
65329;BME280;51941;52.210;5.158;2023-04-19T01:34:35;102767.91;;;19.06;62.07
65329;BME280;51941;52.210;5.158;2023-04-19T01:37:03;102770.06;;;19.04;61.83
65329;BME280;51941;52.210;5.158;2023-04-19T01:39:31;102764.91;;;19.03;62.05
65329;BME280;51941;52.210;5.158;2023-04-19T01:41:57;102764.00;;;18.97;61.91
65329;BME280;51941;52.210;5.158;2023-04-19T01:44:25;102771.22;;;18.97;62.08
65329;BME280;51941;52.210;5.158;2023-04-19T01:46:52;102765.31;;;18.95;62.01
65329;BME280;51941;52.210;5.158;2023-04-19T01:49:19;102769.63;;;18.96;61.67
65329;BME280;51941;52.210;5.158;2023-04-19T01:51:45;102773.59;;;18.93;62.01
65329;BME280;51941;52.210;5.158;2023-04-19T01:54:12;102753.19;;;18.92;61.93
65329;BME280;51941;52.210;5.158;2023-04-19T01:56:40;102761.81;;;18.94;61.67
65329;BME280;51941;52.210;5.158;2023-04-19T01:59:08;102769.50;;;18.90;61.71
65329;BME280;51941;52.210;5.158;2023-04-19T02:01:35;102770.09;;;18.92;61.72
65329;BME280;51941;52.210;5.158;2023-04-19T02:04:01;102772.78;;;18.92;61.60
65329;BME280;51941;52.210;5.158;2023-04-19T02:06:30;102767.50;;;18.98;61.28
65329;BME280;51941;52.210;5.158;2023-04-19T02:08:57;102767.78;;;18.84;61.45
65329;BME280;51941;52.210;5.158;2023-04-19T02:11:23;102768.38;;;18.86;61.42
65329;BME280;51941;52.210;5.158;2023-04-19T02:13:51;102769.44;;;18.85;61.48
65329;BME280;51941;52.210;5.158;2023-04-19T02:16:18;102752.66;;;18.78;61.15
65329;BME280;51941;52.210;5.158;2023-04-19T02:18:45;102762.00;;;18.76;61.24
65329;BME280;51941;52.210;5.158;2023-04-19T02:21:12;102769.56;;;18.79;61.49
65329;BME280;51941;52.210;5.158;2023-04-19T02:23:39;102642.69;;;17.98;60.89
65329;BME280;51941;52.210;5.158;2023-04-19T02:26:05;102769.22;;;18.75;61.37
65329;BME280;51941;52.210;5.158;2023-04-19T02:28:33;102771.56;;;18.72;61.42
65329;BME280;51941;52.210;5.158;2023-04-19T02:31:04;102642.56;;;17.93;61.05
65329;BME280;51941;52.210;5.158;2023-04-19T02:33:33;102771.00;;;18.70;61.62
65329;BME280;51941;52.210;5.158;2023-04-19T02:36:00;102764.09;;;18.74;61.27
65329;BME280;51941;52.210;5.158;2023-04-19T02:38:27;102762.56;;;18.78;60.85
65329;BME280;51941;52.210;5.158;2023-04-19T02:40:53;102772.00;;;18.80;60.88
65329;BME280;51941;52.210;5.158;2023-04-19T02:43:20;102771.09;;;18.75;61.20
65329;BME280;51941;52.210;5.158;2023-04-19T02:45:47;102774.34;;;18.77;61.19
65329;BME280;51941;52.210;5.158;2023-04-19T02:48:15;102770.94;;;18.81;60.93
65329;BME280;51941;52.210;5.158;2023-04-19T02:50:41;102768.50;;;18.80;60.96
65329;BME280;51941;52.210;5.158;2023-04-19T02:53:08;102770.75;;;18.71;60.90
65329;BME280;51941;52.210;5.158;2023-04-19T02:55:35;102718.22;;;18.35;61.26
65329;BME280;51941;52.210;5.158;2023-04-19T02:58:09;102768.41;;;18.75;61.13
65329;BME280;51941;52.210;5.158;2023-04-19T03:00:42;102749.09;;;18.61;61.46
65329;BME280;51941;52.210;5.158;2023-04-19T03:03:14;102768.63;;;18.73;61.35
65329;BME280;51941;52.210;5.158;2023-04-19T03:05:41;102774.25;;;18.72;61.42
65329;BME280;51941;52.210;5.158;2023-04-19T03:08:08;102772.38;;;18.72;61.42
65329;BME280;51941;52.210;5.158;2023-04-19T03:10:35;102768.31;;;18.70;61.40
65329;BME280;51941;52.210;5.158;2023-04-19T03:13:02;102778.22;;;18.69;61.29
65329;BME280;51941;52.210;5.158;2023-04-19T03:15:29;102767.59;;;18.74;61.01
65329;BME280;51941;52.210;5.158;2023-04-19T03:17:56;102766.91;;;18.67;61.37
65329;BME280;51941;52.210;5.158;2023-04-19T03:20:24;102766.56;;;18.64;61.42
65329;BME280;51941;52.210;5.158;2023-04-19T03:22:51;102525.97;;;17.16;61.37
65329;BME280;51941;52.210;5.158;2023-04-19T03:25:19;102762.75;;;18.60;61.53
65329;BME280;51941;52.210;5.158;2023-04-19T03:27:52;102761.44;;;18.62;61.58
65329;BME280;51941;52.210;5.158;2023-04-19T03:30:32;102758.66;;;18.57;61.55
65329;BME280;51941;52.210;5.158;2023-04-19T03:32:59;102768.94;;;18.60;61.66
65329;BME280;51941;52.210;5.158;2023-04-19T03:35:27;102768.66;;;18.62;61.51
65329;BME280;51941;52.210;5.158;2023-04-19T03:38:03;102683.78;;;18.04;61.52
65329;BME280;51941;52.210;5.158;2023-04-19T03:40:32;102759.56;;;18.63;61.32
65329;BME280;51941;52.210;5.158;2023-04-19T03:42:59;102743.75;;;18.38;61.29
65329;BME280;51941;52.210;5.158;2023-04-19T03:45:29;102766.72;;;18.57;61.34
65329;BME280;51941;52.210;5.158;2023-04-19T03:47:56;102766.47;;;18.59;61.36
65329;BME280;51941;52.210;5.158;2023-04-19T03:50:24;102764.94;;;18.63;61.21
65329;BME280;51941;52.210;5.158;2023-04-19T03:52:54;102765.44;;;18.60;61.09
65329;BME280;51941;52.210;5.158;2023-04-19T03:55:21;102763.56;;;18.60;61.21
65329;BME280;51941;52.210;5.158;2023-04-19T03:57:48;102765.06;;;18.56;61.17
65329;BME280;51941;52.210;5.158;2023-04-19T04:00:21;102769.91;;;18.71;60.75
65329;BME280;51941;52.210;5.158;2023-04-19T04:02:54;102762.75;;;18.60;60.96
65329;BME280;51941;52.210;5.158;2023-04-19T04:05:21;102758.75;;;18.62;60.77
65329;BME280;51941;52.210;5.158;2023-04-19T04:07:47;102764.69;;;18.64;60.65
65329;BME280;51941;52.210;5.158;2023-04-19T04:10:16;102762.25;;;18.63;60.89
65329;BME280;51941;52.210;5.158;2023-04-19T04:12:43;102768.44;;;18.63;60.49
65329;BME280;51941;52.210;5.158;2023-04-19T04:15:15;102701.13;;;18.13;61.10
65329;BME280;51941;52.210;5.158;2023-04-19T04:17:46;102763.66;;;18.53;60.96
65329;BME280;51941;52.210;5.158;2023-04-19T04:20:13;102763.66;;;18.53;60.96
65329;BME280;51941;52.210;5.158;2023-04-19T04:22:41;102770.44;;;18.56;60.75
65329;BME280;51941;52.210;5.158;2023-04-19T04:25:10;102767.66;;;18.51;60.80
65329;BME280;51941;52.210;5.158;2023-04-19T04:27:39;102769.28;;;18.52;60.90
65329;BME280;51941;52.210;5.158;2023-04-19T04:30:11;102768.22;;;18.53;60.90
65329;BME280;51941;52.210;5.158;2023-04-19T04:32:38;102766.63;;;18.52;60.90
65329;BME280;51941;52.210;5.158;2023-04-19T04:35:07;102769.13;;;18.47;61.02
65329;BME280;51941;52.210;5.158;2023-04-19T04:37:42;102761.94;;;18.47;60.83
65329;BME280;51941;52.210;5.158;2023-04-19T04:40:10;102762.53;;;18.49;61.00
65329;BME280;51941;52.210;5.158;2023-04-19T04:42:38;102770.81;;;18.48;60.96
65329;BME280;51941;52.210;5.158;2023-04-19T04:45:10;102763.56;;;18.48;60.47
65329;BME280;51941;52.210;5.158;2023-04-19T04:47:41;102764.63;;;18.47;60.58
65329;BME280;51941;52.210;5.158;2023-04-19T04:50:10;102762.53;;;18.49;60.56
65329;BME280;51941;52.210;5.158;2023-04-19T04:52:36;102762.84;;;18.53;60.17
65329;BME280;51941;52.210;5.158;2023-04-19T04:55:09;102766.63;;;18.52;60.30
65329;BME280;51941;52.210;5.158;2023-04-19T04:57:42;102753.91;;;18.47;60.12
65329;BME280;51941;52.210;5.158;2023-04-19T05:00:15;102761.81;;;18.42;60.47
65329;BME280;51941;52.210;5.158;2023-04-19T05:02:51;102767.91;;;18.49;60.05
65329;BME280;51941;52.210;5.158;2023-04-19T05:05:18;102759.47;;;18.46;60.28
65329;BME280;51941;52.210;5.158;2023-04-19T05:07:45;102763.94;;;18.52;60.01
65329;BME280;51941;52.210;5.158;2023-04-19T05:10:12;102765.78;;;18.51;59.69
65329;BME280;51941;52.210;5.158;2023-04-19T05:12:44;102763.13;;;18.51;59.73
65329;BME280;51941;52.210;5.158;2023-04-19T05:15:11;102762.84;;;18.53;59.63
65329;BME280;51941;52.210;5.158;2023-04-19T05:17:43;102767.91;;;18.49;59.78
65329;BME280;51941;52.210;5.158;2023-04-19T05:20:11;102769.84;;;18.54;59.65
65329;BME280;51941;52.210;5.158;2023-04-19T05:22:39;102766.72;;;18.57;59.69
65329;BME280;51941;52.210;5.158;2023-04-19T05:25:09;102773.69;;;18.70;59.31
65329;BME280;51941;52.210;5.158;2023-04-19T05:27:36;102776.81;;;18.78;58.87
65329;BME280;51941;52.210;5.158;2023-04-19T05:30:05;102772.09;;;18.85;58.82
65329;BME280;51941;52.210;5.158;2023-04-19T05:32:35;102781.66;;;18.93;58.81
65329;BME280;51941;52.210;5.158;2023-04-19T05:35:04;102777.19;;;18.99;58.89
65329;BME280;51941;52.210;5.158;2023-04-19T05:37:31;102771.69;;;19.05;59.03
65329;BME280;51941;52.210;5.158;2023-04-19T05:39:58;102772.34;;;19.12;59.35
65329;BME280;51941;52.210;5.158;2023-04-19T05:42:24;102770.56;;;19.18;59.55
65329;BME280;51941;52.210;5.158;2023-04-19T05:44:51;102770.09;;;19.21;59.92
65329;BME280;51941;52.210;5.158;2023-04-19T05:47:20;102768.06;;;19.28;60.15
65329;BME280;51941;52.210;5.158;2023-04-19T05:50:09;102769.03;;;19.22;61.33
65329;BME280;51941;52.210;5.158;2023-04-19T05:52:42;102771.53;;;19.12;61.10
65329;BME280;51941;52.210;5.158;2023-04-19T05:55:09;102764.47;;;19.22;60.83
65329;BME280;51941;52.210;5.158;2023-04-19T05:57:40;102763.31;;;19.18;61.23
65329;BME280;51941;52.210;5.158;2023-04-19T06:00:08;102766.91;;;19.24;60.87
65329;BME280;51941;52.210;5.158;2023-04-19T06:02:45;102761.22;;;19.20;60.77
65329;BME280;51941;52.210;5.158;2023-04-19T06:05:13;102768.13;;;19.16;60.91
65329;BME280;51941;52.210;5.158;2023-04-19T06:07:40;102769.97;;;19.16;60.85
65329;BME280;51941;52.210;5.158;2023-04-19T06:10:07;102765.44;;;19.16;60.89
65329;BME280;51941;52.210;5.158;2023-04-19T06:12:34;102711.91;;;18.81;60.57
65329;BME280;51941;52.210;5.158;2023-04-19T06:15:01;102755.44;;;19.12;60.38
65329;BME280;51941;52.210;5.158;2023-04-19T06:17:28;102771.03;;;19.15;60.52
65329;BME280;51941;52.210;5.158;2023-04-19T06:19:57;102770.81;;;19.16;60.29
65329;BME280;51941;52.210;5.158;2023-04-19T06:22:23;102779.50;;;19.23;60.19
65329;BME280;51941;52.210;5.158;2023-04-19T06:24:51;102766.91;;;19.24;60.16
65329;BME280;51941;52.210;5.158;2023-04-19T06:27:17;102770.91;;;19.21;59.90
65329;BME280;51941;52.210;5.158;2023-04-19T06:29:44;102775.78;;;19.24;59.96
65329;BME280;51941;52.210;5.158;2023-04-19T06:32:10;102765.13;;;19.29;59.84
65329;BME280;51941;52.210;5.158;2023-04-19T06:34:37;102765.63;;;19.26;59.77
65329;BME280;51941;52.210;5.158;2023-04-19T06:37:05;102773.50;;;19.33;59.44
65329;BME280;51941;52.210;5.158;2023-04-19T06:39:32;102780.31;;;19.36;59.35
65329;BME280;51941;52.210;5.158;2023-04-19T06:41:58;102773.31;;;19.35;59.22
65329;BME280;51941;52.210;5.158;2023-04-19T06:44:27;102782.81;;;19.42;58.72
65329;BME280;51941;52.210;5.158;2023-04-19T06:46:54;102772.84;;;19.38;58.78
65329;BME280;51941;52.210;5.158;2023-04-19T06:49:20;102739.41;;;19.17;58.73
65329;BME280;51941;52.210;5.158;2023-04-19T06:51:47;102772.66;;;19.44;58.87
65329;BME280;51941;52.210;5.158;2023-04-19T06:54:15;102776.97;;;19.45;58.40
65329;BME280;51941;52.210;5.158;2023-04-19T06:56:43;102743.00;;;19.22;58.31
65329;BME280;51941;52.210;5.158;2023-04-19T06:59:11;102777.81;;;19.46;58.30
65329;BME280;51941;52.210;5.158;2023-04-19T07:01:38;102779.09;;;19.43;58.13
65329;BME280;51941;52.210;5.158;2023-04-19T07:04:05;102789.13;;;19.48;58.21
65329;BME280;51941;52.210;5.158;2023-04-19T07:06:32;102778.44;;;19.53;57.85
65329;BME280;51941;52.210;5.158;2023-04-19T07:08:58;102783.59;;;19.54;57.80
65329;BME280;51941;52.210;5.158;2023-04-19T07:11:26;102780.56;;;19.51;57.62
65329;BME280;51941;52.210;5.158;2023-04-19T07:13:53;102778.22;;;19.54;57.88
65329;BME280;51941;52.210;5.158;2023-04-19T07:16:20;102755.31;;;19.35;57.98
65329;BME280;51941;52.210;5.158;2023-04-19T07:18:47;102788.84;;;19.49;58.55
65329;BME280;51941;52.210;5.158;2023-04-19T07:21:14;102700.56;;;18.91;58.50
65329;BME280;51941;52.210;5.158;2023-04-19T07:23:40;102779.50;;;19.52;58.12
65329;BME280;51941;52.210;5.158;2023-04-19T07:26:07;102789.31;;;19.58;57.98
65329;BME280;51941;52.210;5.158;2023-04-19T07:28:35;102791.72;;;19.59;58.21
65329;BME280;51941;52.210;5.158;2023-04-19T07:31:02;102794.41;;;19.59;58.38
65329;BME280;51941;52.210;5.158;2023-04-19T07:33:28;102792.22;;;19.56;58.29
65329;BME280;51941;52.210;5.158;2023-04-19T07:35:55;102776.59;;;19.53;58.49
65329;BME280;51941;52.210;5.158;2023-04-19T07:38:22;102785.53;;;19.59;58.60
65329;BME280;51941;52.210;5.158;2023-04-19T07:40:49;102788.22;;;19.59;57.31
65329;BME280;51941;52.210;5.158;2023-04-19T07:43:15;102771.09;;;19.32;54.60
65329;BME280;51941;52.210;5.158;2023-04-19T07:45:43;102770.50;;;19.58;53.57
65329;BME280;51941;52.210;5.158;2023-04-19T07:48:10;102783.13;;;19.29;56.96
65329;BME280;51941;52.210;5.158;2023-04-19T07:50:36;102782.16;;;19.07;59.16
65329;BME280;51941;52.210;5.158;2023-04-19T07:53:03;102791.72;;;18.86;60.42
65329;BME280;51941;52.210;5.158;2023-04-19T07:55:30;102780.78;;;18.76;61.49
65329;BME280;51941;52.210;5.158;2023-04-19T07:57:56;102780.09;;;18.69;62.08
65329;BME280;51941;52.210;5.158;2023-04-19T08:00:23;102782.88;;;18.62;62.67
65329;BME280;51941;52.210;5.158;2023-04-19T08:02:51;102786.84;;;18.71;63.05
65329;BME280;51941;52.210;5.158;2023-04-19T08:05:18;102792.63;;;18.80;61.95
65329;BME280;51941;52.210;5.158;2023-04-19T08:07:45;102792.84;;;18.90;61.20
65329;BME280;51941;52.210;5.158;2023-04-19T08:10:12;102782.50;;;18.82;62.23
65329;BME280;51941;52.210;5.158;2023-04-19T08:12:39;102793.44;;;18.92;61.86
65329;BME280;51941;52.210;5.158;2023-04-19T08:15:07;102789.25;;;18.84;62.32
65329;BME280;51941;52.210;5.158;2023-04-19T08:17:34;102785.66;;;18.79;62.64
65329;BME280;51941;52.210;5.158;2023-04-19T08:20:02;102781.59;;;18.76;63.38
65329;BME280;51941;52.210;5.158;2023-04-19T08:22:31;102786.81;;;18.83;62.71
65329;BME280;51941;52.210;5.158;2023-04-19T08:24:57;102790.44;;;18.77;63.02
65329;BME280;51941;52.210;5.158;2023-04-19T08:27:24;102788.22;;;18.74;63.63
65329;BME280;51941;52.210;5.158;2023-04-19T08:29:51;102779.59;;;18.72;63.63
65329;BME280;51941;52.210;5.158;2023-04-19T08:32:18;102780.41;;;18.72;64.16
65329;BME280;51941;52.210;5.158;2023-04-19T08:34:45;102786.38;;;18.74;66.05
65329;BME280;51941;52.210;5.158;2023-04-19T08:37:13;102778.47;;;18.68;63.92
65329;BME280;51941;52.210;5.158;2023-04-19T08:39:40;102771.47;;;18.67;64.00
65329;BME280;51941;52.210;5.158;2023-04-19T08:42:08;102779.97;;;18.64;64.23
65329;BME280;51941;52.210;5.158;2023-04-19T08:44:36;102779.38;;;18.62;64.56
65329;BME280;51941;52.210;5.158;2023-04-19T08:47:03;102779.06;;;18.46;65.07
65329;BME280;51941;52.210;5.158;2023-04-19T08:49:30;102773.13;;;18.56;65.09
65329;BME280;51941;52.210;5.158;2023-04-19T08:52:00;102777.41;;;18.69;64.11
65329;BME280;51941;52.210;5.158;2023-04-19T08:54:28;102773.13;;;18.56;64.41
65329;BME280;51941;52.210;5.158;2023-04-19T08:56:57;102780.72;;;18.47;64.72
65329;BME280;51941;52.210;5.158;2023-04-19T08:59:24;102775.13;;;18.49;64.59
65329;BME280;51941;52.210;5.158;2023-04-19T09:01:50;102773.03;;;18.51;64.00
65329;BME280;51941;52.210;5.158;2023-04-19T09:04:18;102775.28;;;18.71;63.41
65329;BME280;51941;52.210;5.158;2023-04-19T09:06:45;102773.31;;;18.78;63.28
65329;BME280;51941;52.210;5.158;2023-04-19T09:09:16;102775.63;;;18.74;63.24
65329;BME280;51941;52.210;5.158;2023-04-19T09:11:44;102767.06;;;18.61;62.80
65329;BME280;51941;52.210;5.158;2023-04-19T09:14:14;102778.22;;;18.69;61.75
65329;BME280;51941;52.210;5.158;2023-04-19T09:16:41;102752.63;;;18.50;61.39
65329;BME280;51941;52.210;5.158;2023-04-19T09:19:08;102762.22;;;18.74;58.00
65329;BME280;51941;52.210;5.158;2023-04-19T09:21:37;102772.78;;;18.92;58.86
65329;BME280;51941;52.210;5.158;2023-04-19T09:24:05;102771.06;;;18.86;60.86
65329;BME280;51941;52.210;5.158;2023-04-19T09:26:32;102768.34;;;19.15;59.69
65329;BME280;51941;52.210;5.158;2023-04-19T09:29:01;102767.31;;;18.87;59.43
65329;BME280;51941;52.210;5.158;2023-04-19T09:31:30;102742.28;;;18.70;59.27
65329;BME280;51941;52.210;5.158;2023-04-19T09:34:11;102775.19;;;18.66;60.04
65329;BME280;51941;52.210;5.158;2023-04-19T09:36:39;102759.25;;;18.59;61.46
65329;BME280;51941;52.210;5.158;2023-04-19T09:39:05;102760.16;;;18.53;61.96
65329;BME280;51941;52.210;5.158;2023-04-19T09:41:32;102756.34;;;18.49;62.67
65329;BME280;51941;52.210;5.158;2023-04-19T09:44:09;102741.31;;;18.48;62.33
65329;BME280;51941;52.210;5.158;2023-04-19T09:46:37;102760.66;;;18.50;62.50
65329;BME280;51941;52.210;5.158;2023-04-19T09:49:18;102754.91;;;18.46;62.54
65329;BME280;51941;52.210;5.158;2023-04-19T09:51:46;102753.91;;;18.47;62.50
65329;BME280;51941;52.210;5.158;2023-04-19T09:54:14;102645.28;;;17.82;62.62
65329;BME280;51941;52.210;5.158;2023-04-19T09:56:41;102740.59;;;18.41;62.60
65329;BME280;51941;52.210;5.158;2023-04-19T09:59:09;102750.03;;;18.43;62.65
65329;BME280;51941;52.210;5.158;2023-04-19T10:01:39;102740.75;;;18.34;62.53
65329;BME280;51941;52.210;5.158;2023-04-19T10:04:09;102753.88;;;18.36;62.68
65329;BME280;51941;52.210;5.158;2023-04-19T10:06:38;102739.44;;;18.37;62.75
65329;BME280;51941;52.210;5.158;2023-04-19T10:09:05;102745.97;;;18.41;62.51
65329;BME280;51941;52.210;5.158;2023-04-19T10:11:34;102745.03;;;18.35;62.11
65329;BME280;51941;52.210;5.158;2023-04-19T10:14:05;102738.38;;;18.38;61.94
65329;BME280;51941;52.210;5.158;2023-04-19T10:16:34;102741.88;;;18.38;62.31
65329;BME280;51941;52.210;5.158;2023-04-19T10:19:02;102726.59;;;18.39;62.15
65329;BME280;51941;52.210;5.158;2023-04-19T10:21:29;102735.59;;;18.33;62.53
65329;BME280;51941;52.210;5.158;2023-04-19T10:23:58;102737.34;;;18.39;62.27
65329;BME280;51941;52.210;5.158;2023-04-19T10:26:25;102726.16;;;18.42;62.20
65329;BME280;51941;52.210;5.158;2023-04-19T10:28:53;102728.91;;;18.47;61.85
65329;BME280;51941;52.210;5.158;2023-04-19T10:31:21;102689.00;;;18.22;62.09
65329;BME280;51941;52.210;5.158;2023-04-19T10:33:49;102715.06;;;18.38;62.25
65329;BME280;51941;52.210;5.158;2023-04-19T10:36:17;102622.09;;;17.75;62.07
65329;BME280;51941;52.210;5.158;2023-04-19T10:38:45;102716.34;;;18.36;62.51
65329;BME280;51941;52.210;5.158;2023-04-19T10:41:12;102639.06;;;17.93;62.38
65329;BME280;51941;52.210;5.158;2023-04-19T10:43:42;102714.75;;;18.35;62.79
65329;BME280;51941;52.210;5.158;2023-04-19T10:46:13;102707.16;;;18.32;62.54
65329;BME280;51941;52.210;5.158;2023-04-19T10:48:50;102709.38;;;18.35;62.48
65329;BME280;51941;52.210;5.158;2023-04-19T10:51:22;102711.47;;;18.33;62.71
65329;BME280;51941;52.210;5.158;2023-04-19T10:53:51;102718.13;;;18.30;62.68
65329;BME280;51941;52.210;5.158;2023-04-19T10:56:20;102708.44;;;18.29;62.64
65329;BME280;51941;52.210;5.158;2023-04-19T10:59:11;102707.16;;;18.32;61.65
65329;BME280;51941;52.210;5.158;2023-04-19T11:01:41;102702.63;;;18.32;62.52
65329;BME280;51941;52.210;5.158;2023-04-19T11:04:10;102707.63;;;18.29;62.35
65329;BME280;51941;52.210;5.158;2023-04-19T11:06:55;102706.34;;;18.31;62.45
65329;BME280;51941;52.210;5.158;2023-04-19T11:09:26;102697.50;;;18.31;62.70
65329;BME280;51941;52.210;5.158;2023-04-19T11:11:57;102688.25;;;18.38;61.65
65329;BME280;51941;52.210;5.158;2023-04-19T11:14:25;102680.06;;;18.45;61.50
65329;BME280;51941;52.210;5.158;2023-04-19T11:16:52;102689.22;;;18.32;61.85
65329;BME280;51941;52.210;5.158;2023-04-19T11:19:20;102700.16;;;18.31;62.03
65329;BME280;51941;52.210;5.158;2023-04-19T11:21:48;102676.56;;;18.44;60.33
65329;BME280;51941;52.210;5.158;2023-04-19T11:24:15;102690.69;;;18.40;60.60
65329;BME280;51941;52.210;5.158;2023-04-19T11:26:43;102672.53;;;18.42;61.10
65329;BME280;51941;52.210;5.158;2023-04-19T11:29:10;102666.81;;;18.38;59.23
65329;BME280;51941;52.210;5.158;2023-04-19T11:31:37;102665.75;;;18.39;59.77
65329;BME280;51941;52.210;5.158;2023-04-19T11:34:04;102660.84;;;18.36;59.71
65329;BME280;51941;52.210;5.158;2023-04-19T11:36:32;102659.81;;;18.37;60.09
65329;BME280;51941;52.210;5.158;2023-04-19T11:39:01;102657.94;;;18.49;59.70
65329;BME280;51941;52.210;5.158;2023-04-19T11:41:36;102655.25;;;18.49;60.15
65329;BME280;51941;52.210;5.158;2023-04-19T11:44:03;102646.84;;;18.46;60.01
65329;BME280;51941;52.210;5.158;2023-04-19T11:46:30;102653.25;;;18.57;59.55
65329;BME280;51941;52.210;5.158;2023-04-19T11:48:56;102641.69;;;18.56;59.25
65329;BME280;51941;52.210;5.158;2023-04-19T11:51:25;102641.94;;;18.54;59.88
65329;BME280;51941;52.210;5.158;2023-04-19T11:53:53;102644.63;;;18.54;59.38
65329;BME280;51941;52.210;5.158;2023-04-19T11:56:19;102639.84;;;18.45;60.05
65329;BME280;51941;52.210;5.158;2023-04-19T11:58:47;102608.22;;;18.30;60.07
65329;BME280;51941;52.210;5.158;2023-04-19T12:01:15;102629.94;;;18.45;59.80
65329;BME280;51941;52.210;5.158;2023-04-19T12:03:45;102618.47;;;18.62;58.57
65329;BME280;51941;52.210;5.158;2023-04-19T12:06:15;102623.13;;;18.83;57.22
65329;BME280;51941;52.210;5.158;2023-04-19T12:08:44;102599.13;;;18.60;56.91
65329;BME280;51941;52.210;5.158;2023-04-19T12:11:13;102552.97;;;18.29;56.67
65329;BME280;51941;52.210;5.158;2023-04-19T12:13:40;102633.38;;;18.69;57.18
65329;BME280;51941;52.210;5.158;2023-04-19T12:16:09;102623.34;;;18.65;55.15
65329;BME280;51941;52.210;5.158;2023-04-19T12:18:43;102621.91;;;18.74;55.33
65329;BME280;51941;52.210;5.158;2023-04-19T12:21:10;102630.13;;;18.67;55.58
65329;BME280;51941;52.210;5.158;2023-04-19T12:23:37;102632.78;;;18.67;54.42
65329;BME280;51941;52.210;5.158;2023-04-19T12:26:04;102627.91;;;18.64;55.82
65329;BME280;51941;52.210;5.158;2023-04-19T12:28:33;102631.50;;;18.70;55.95
65329;BME280;51941;52.210;5.158;2023-04-19T12:30:59;102622.38;;;18.71;55.62
65329;BME280;51941;52.210;5.158;2023-04-19T12:33:26;102620.84;;;18.75;55.57
65329;BME280;51941;52.210;5.158;2023-04-19T12:35:53;102623.69;;;18.68;55.96
65329;BME280;51941;52.210;5.158;2023-04-19T12:38:20;102609.94;;;18.65;56.23
65329;BME280;51941;52.210;5.158;2023-04-19T12:40:46;102615.84;;;18.78;54.98
65329;BME280;51941;52.210;5.158;2023-04-19T12:43:13;102607.13;;;18.88;54.55
65329;BME280;51941;52.210;5.158;2023-04-19T12:45:41;102606.38;;;18.76;55.19
65329;BME280;51941;52.210;5.158;2023-04-19T12:48:08;102610.13;;;18.75;55.63
65329;BME280;51941;52.210;5.158;2023-04-19T12:50:34;102608.03;;;18.77;55.20
65329;BME280;51941;52.210;5.158;2023-04-19T12:53:01;102605.81;;;18.90;54.43
65329;BME280;51941;52.210;5.158;2023-04-19T12:55:28;102597.88;;;18.79;54.88